sensor_id;sensor_type;location;lat;lon;timestamp;P1;durP1;ratioP1;P2;durP2;ratioP2
18188;SDS011;9219;50.396;8.546;2023-04-16T00:01:22;36.13;;;15.37;;
18188;SDS011;9219;50.396;8.546;2023-04-16T00:03:49;29.93;;;14.20;;
18188;SDS011;9219;50.396;8.546;2023-04-16T00:06:17;44.57;;;16.27;;
18188;SDS011;9219;50.396;8.546;2023-04-16T00:08:45;41.53;;;16.83;;
18188;SDS011;9219;50.396;8.546;2023-04-16T00:11:12;35.07;;;14.40;;
18188;SDS011;9219;50.396;8.546;2023-04-16T00:13:40;28.43;;;14.03;;
18188;SDS011;9219;50.396;8.546;2023-04-16T00:21:11;33.77;;;15.13;;
18188;SDS011;9219;50.396;8.546;2023-04-16T00:23:39;34.23;;;14.73;;
18188;SDS011;9219;50.396;8.546;2023-04-16T00:26:07;42.70;;;14.90;;
18188;SDS011;9219;50.396;8.546;2023-04-16T00:28:35;36.40;;;14.67;;
18188;SDS011;9219;50.396;8.546;2023-04-16T00:31:06;36.87;;;15.07;;
18188;SDS011;9219;50.396;8.546;2023-04-16T00:33:33;47.23;;;17.43;;
18188;SDS011;9219;50.396;8.546;2023-04-16T00:36:00;43.53;;;16.83;;
18188;SDS011;9219;50.396;8.546;2023-04-16T00:41:07;43.47;;;18.20;;
18188;SDS011;9219;50.396;8.546;2023-04-16T00:43:34;37.10;;;14.60;;
18188;SDS011;9219;50.396;8.546;2023-04-16T00:46:02;42.97;;;14.57;;
18188;SDS011;9219;50.396;8.546;2023-04-16T00:48:31;34.90;;;14.63;;
18188;SDS011;9219;50.396;8.546;2023-04-16T00:50:59;36.03;;;14.47;;
18188;SDS011;9219;50.396;8.546;2023-04-16T00:53:27;43.80;;;16.27;;
18188;SDS011;9219;50.396;8.546;2023-04-16T00:55:55;28.40;;;14.50;;
18188;SDS011;9219;50.396;8.546;2023-04-16T01:03:33;45.73;;;17.53;;
18188;SDS011;9219;50.396;8.546;2023-04-16T01:06:04;32.33;;;15.03;;
18188;SDS011;9219;50.396;8.546;2023-04-16T01:08:33;43.47;;;17.03;;
18188;SDS011;9219;50.396;8.546;2023-04-16T01:11:03;33.27;;;15.10;;
18188;SDS011;9219;50.396;8.546;2023-04-16T01:13:31;48.77;;;16.97;;
18188;SDS011;9219;50.396;8.546;2023-04-16T01:15:59;33.60;;;16.10;;
18188;SDS011;9219;50.396;8.546;2023-04-16T01:18:26;35.03;;;13.80;;
18188;SDS011;9219;50.396;8.546;2023-04-16T01:25:58;29.80;;;13.00;;
18188;SDS011;9219;50.396;8.546;2023-04-16T01:28:25;31.77;;;14.83;;
18188;SDS011;9219;50.396;8.546;2023-04-16T01:30:55;27.70;;;15.33;;
18188;SDS011;9219;50.396;8.546;2023-04-16T01:33:25;31.33;;;14.37;;
18188;SDS011;9219;50.396;8.546;2023-04-16T01:35:52;33.00;;;14.23;;
18188;SDS011;9219;50.396;8.546;2023-04-16T01:38:34;30.17;;;12.67;;
18188;SDS011;9219;50.396;8.546;2023-04-16T01:41:05;31.30;;;14.00;;
18188;SDS011;9219;50.396;8.546;2023-04-16T01:46:26;31.67;;;14.10;;
18188;SDS011;9219;50.396;8.546;2023-04-16T01:49:00;30.50;;;16.77;;
18188;SDS011;9219;50.396;8.546;2023-04-16T01:51:27;29.00;;;14.00;;
18188;SDS011;9219;50.396;8.546;2023-04-16T01:53:57;31.93;;;13.60;;
18188;SDS011;9219;50.396;8.546;2023-04-16T01:56:25;28.83;;;14.63;;
18188;SDS011;9219;50.396;8.546;2023-04-16T01:59:12;27.77;;;13.40;;
18188;SDS011;9219;50.396;8.546;2023-04-16T02:01:54;32.00;;;14.40;;
18188;SDS011;9219;50.396;8.546;2023-04-16T02:07:08;32.60;;;14.90;;
18188;SDS011;9219;50.396;8.546;2023-04-16T02:09:37;29.27;;;14.70;;
18188;SDS011;9219;50.396;8.546;2023-04-16T02:12:05;29.67;;;13.60;;
18188;SDS011;9219;50.396;8.546;2023-04-16T02:14:39;30.97;;;14.00;;
18188;SDS011;9219;50.396;8.546;2023-04-16T02:17:30;31.73;;;16.03;;
18188;SDS011;9219;50.396;8.546;2023-04-16T02:20:07;34.23;;;15.27;;
18188;SDS011;9219;50.396;8.546;2023-04-16T02:22:36;30.97;;;16.10;;
18188;SDS011;9219;50.396;8.546;2023-04-16T02:25:07;29.53;;;16.30;;
18188;SDS011;9219;50.396;8.546;2023-04-16T02:33:24;31.63;;;16.87;;
18188;SDS011;9219;50.396;8.546;2023-04-16T02:35:56;39.93;;;18.20;;
18188;SDS011;9219;50.396;8.546;2023-04-16T02:38:23;31.83;;;15.23;;
18188;SDS011;9219;50.396;8.546;2023-04-16T02:40:52;38.23;;;18.27;;
18188;SDS011;9219;50.396;8.546;2023-04-16T02:43:35;35.40;;;18.10;;
18188;SDS011;9219;50.396;8.546;2023-04-16T02:46:06;35.27;;;16.23;;
18188;SDS011;9219;50.396;8.546;2023-04-16T02:48:34;39.77;;;17.57;;
18188;SDS011;9219;50.396;8.546;2023-04-16T02:51:11;41.17;;;19.53;;
18188;SDS011;9219;50.396;8.546;2023-04-16T02:53:39;36.93;;;18.20;;
18188;SDS011;9219;50.396;8.546;2023-04-16T03:01:39;35.77;;;18.57;;
18188;SDS011;9219;50.396;8.546;2023-04-16T03:04:12;35.93;;;17.80;;
18188;SDS011;9219;50.396;8.546;2023-04-16T03:07:02;37.43;;;17.13;;
18188;SDS011;9219;50.396;8.546;2023-04-16T03:09:30;37.20;;;17.70;;
18188;SDS011;9219;50.396;8.546;2023-04-16T03:11:57;37.60;;;19.33;;
18188;SDS011;9219;50.396;8.546;2023-04-16T03:14:26;32.30;;;15.17;;
18188;SDS011;9219;50.396;8.546;2023-04-16T03:16:55;39.53;;;17.77;;
18188;SDS011;9219;50.396;8.546;2023-04-16T03:25:05;38.43;;;17.30;;
18188;SDS011;9219;50.396;8.546;2023-04-16T03:27:32;34.90;;;17.13;;
18188;SDS011;9219;50.396;8.546;2023-04-16T03:30:01;33.20;;;16.33;;
18188;SDS011;9219;50.396;8.546;2023-04-16T03:32:29;33.93;;;16.97;;
18188;SDS011;9219;50.396;8.546;2023-04-16T03:34:57;33.87;;;15.80;;
18188;SDS011;9219;50.396;8.546;2023-04-16T03:37:29;37.57;;;16.33;;
18188;SDS011;9219;50.396;8.546;2023-04-16T03:39:57;35.90;;;17.07;;
18188;SDS011;9219;50.396;8.546;2023-04-16T03:47:39;32.80;;;17.23;;
18188;SDS011;9219;50.396;8.546;2023-04-16T03:50:07;33.80;;;17.67;;
18188;SDS011;9219;50.396;8.546;2023-04-16T03:52:36;34.20;;;16.23;;
18188;SDS011;9219;50.396;8.546;2023-04-16T03:55:04;32.23;;;15.67;;
18188;SDS011;9219;50.396;8.546;2023-04-16T03:57:32;35.03;;;16.83;;
18188;SDS011;9219;50.396;8.546;2023-04-16T04:00:00;28.57;;;14.37;;
18188;SDS011;9219;50.396;8.546;2023-04-16T04:02:27;29.23;;;14.87;;
18188;SDS011;9219;50.396;8.546;2023-04-16T04:07:40;27.97;;;13.60;;
18188;SDS011;9219;50.396;8.546;2023-04-16T04:10:08;25.77;;;13.57;;
18188;SDS011;9219;50.396;8.546;2023-04-16T04:12:35;30.90;;;13.87;;
18188;SDS011;9219;50.396;8.546;2023-04-16T04:15:03;26.27;;;13.53;;
18188;SDS011;9219;50.396;8.546;2023-04-16T04:17:31;27.37;;;12.70;;
18188;SDS011;9219;50.396;8.546;2023-04-16T04:19:59;28.60;;;13.47;;
18188;SDS011;9219;50.396;8.546;2023-04-16T04:22:29;27.20;;;13.27;;
18188;SDS011;9219;50.396;8.546;2023-04-16T04:24:57;26.03;;;12.00;;
18188;SDS011;9219;50.396;8.546;2023-04-16T04:32:30;29.40;;;12.50;;
18188;SDS011;9219;50.396;8.546;2023-04-16T04:34:58;25.57;;;12.87;;
18188;SDS011;9219;50.396;8.546;2023-04-16T04:37:26;24.97;;;12.37;;
18188;SDS011;9219;50.396;8.546;2023-04-16T04:39:54;26.87;;;12.37;;
18188;SDS011;9219;50.396;8.546;2023-04-16T04:42:21;29.53;;;13.07;;
18188;SDS011;9219;50.396;8.546;2023-04-16T04:44:50;30.73;;;13.87;;
18188;SDS011;9219;50.396;8.546;2023-04-16T04:47:17;29.73;;;13.17;;
18188;SDS011;9219;50.396;8.546;2023-04-16T04:49:45;27.30;;;12.87;;
18188;SDS011;9219;50.396;8.546;2023-04-16T04:52:25;27.30;;;13.47;;
18188;SDS011;9219;50.396;8.546;2023-04-16T04:54:53;23.77;;;12.43;;
18188;SDS011;9219;50.396;8.546;2023-04-16T04:57:20;23.43;;;12.73;;
18188;SDS011;9219;50.396;8.546;2023-04-16T04:59:50;35.03;;;13.93;;
18188;SDS011;9219;50.396;8.546;2023-04-16T05:02:35;34.30;;;14.60;;
18188;SDS011;9219;50.396;8.546;2023-04-16T05:05:05;34.07;;;14.23;;
18188;SDS011;9219;50.396;8.546;2023-04-16T05:07:38;28.10;;;14.60;;
18188;SDS011;9219;50.396;8.546;2023-04-16T05:12:53;32.63;;;15.40;;
18188;SDS011;9219;50.396;8.546;2023-04-16T05:15:21;31.53;;;13.77;;
18188;SDS011;9219;50.396;8.546;2023-04-16T05:17:49;31.97;;;13.87;;
18188;SDS011;9219;50.396;8.546;2023-04-16T05:20:17;27.73;;;13.37;;
18188;SDS011;9219;50.396;8.546;2023-04-16T05:22:48;25.27;;;13.43;;
18188;SDS011;9219;50.396;8.546;2023-04-16T05:25:16;31.73;;;14.00;;
18188;SDS011;9219;50.396;8.546;2023-04-16T05:27:43;29.17;;;13.60;;
18188;SDS011;9219;50.396;8.546;2023-04-16T05:35:39;27.83;;;12.97;;
18188;SDS011;9219;50.396;8.546;2023-04-16T05:38:09;30.23;;;13.70;;
18188;SDS011;9219;50.396;8.546;2023-04-16T05:40:38;25.47;;;14.37;;
18188;SDS011;9219;50.396;8.546;2023-04-16T05:43:12;29.80;;;12.60;;
18188;SDS011;9219;50.396;8.546;2023-04-16T05:45:49;24.73;;;11.50;;
18188;SDS011;9219;50.396;8.546;2023-04-16T05:48:20;27.67;;;13.07;;
18188;SDS011;9219;50.396;8.546;2023-04-16T05:50:48;29.20;;;13.90;;
18188;SDS011;9219;50.396;8.546;2023-04-16T05:53:18;38.93;;;14.97;;
18188;SDS011;9219;50.396;8.546;2023-04-16T06:00:51;194.77;;;27.63;;
18188;SDS011;9219;50.396;8.546;2023-04-16T06:03:18;184.90;;;27.03;;
18188;SDS011;9219;50.396;8.546;2023-04-16T06:05:48;46.80;;;17.07;;
18188;SDS011;9219;50.396;8.546;2023-04-16T06:08:18;182.23;;;29.87;;
18188;SDS011;9219;50.396;8.546;2023-04-16T06:10:46;79.37;;;21.70;;
18188;SDS011;9219;50.396;8.546;2023-04-16T06:13:21;572.77;;;64.47;;
18188;SDS011;9219;50.396;8.546;2023-04-16T06:15:49;612.70;;;75.03;;
18188;SDS011;9219;50.396;8.546;2023-04-16T06:21:20;686.57;;;82.47;;
18188;SDS011;9219;50.396;8.546;2023-04-16T06:23:47;643.33;;;77.27;;
18188;SDS011;9219;50.396;8.546;2023-04-16T06:26:14;541.70;;;73.97;;
18188;SDS011;9219;50.396;8.546;2023-04-16T06:28:54;825.43;;;113.13;;
18188;SDS011;9219;50.396;8.546;2023-04-16T06:31:21;184.63;;;31.37;;
18188;SDS011;9219;50.396;8.546;2023-04-16T06:33:48;762.13;;;100.00;;
18188;SDS011;9219;50.396;8.546;2023-04-16T06:36:16;238.17;;;35.90;;
18188;SDS011;9219;50.396;8.546;2023-04-16T06:38:44;367.00;;;48.13;;
18188;SDS011;9219;50.396;8.546;2023-04-16T06:46:25;529.00;;;72.07;;
18188;SDS011;9219;50.396;8.546;2023-04-16T06:48:55;463.97;;;57.23;;
18188;SDS011;9219;50.396;8.546;2023-04-16T06:51:23;527.30;;;69.07;;
18188;SDS011;9219;50.396;8.546;2023-04-16T06:53:51;334.37;;;48.73;;
18188;SDS011;9219;50.396;8.546;2023-04-16T06:56:18;451.10;;;53.87;;
18188;SDS011;9219;50.396;8.546;2023-04-16T06:58:47;533.90;;;66.10;;
18188;SDS011;9219;50.396;8.546;2023-04-16T07:01:16;288.43;;;42.40;;
18188;SDS011;9219;50.396;8.546;2023-04-16T07:07:53;75.20;;;25.97;;
18188;SDS011;9219;50.396;8.546;2023-04-16T07:10:22;611.90;;;76.57;;
18188;SDS011;9219;50.396;8.546;2023-04-16T07:12:49;168.53;;;31.10;;
18188;SDS011;9219;50.396;8.546;2023-04-16T07:15:17;710.37;;;92.47;;
18188;SDS011;9219;50.396;8.546;2023-04-16T07:17:44;404.77;;;56.03;;
18188;SDS011;9219;50.396;8.546;2023-04-16T07:20:13;227.40;;;39.40;;
18188;SDS011;9219;50.396;8.546;2023-04-16T07:22:42;73.13;;;25.43;;
18188;SDS011;9219;50.396;8.546;2023-04-16T07:27:50;222.27;;;35.83;;
18188;SDS011;9219;50.396;8.546;2023-04-16T07:30:17;316.80;;;42.87;;
18188;SDS011;9219;50.396;8.546;2023-04-16T07:32:45;483.37;;;60.13;;
18188;SDS011;9219;50.396;8.546;2023-04-16T07:35:18;489.97;;;56.17;;
18188;SDS011;9219;50.396;8.546;2023-04-16T07:37:46;735.13;;;96.43;;
18188;SDS011;9219;50.396;8.546;2023-04-16T07:40:13;107.33;;;28.50;;
18188;SDS011;9219;50.396;8.546;2023-04-16T07:42:43;88.07;;;25.73;;
18188;SDS011;9219;50.396;8.546;2023-04-16T07:48:03;267.93;;;43.20;;
18188;SDS011;9219;50.396;8.546;2023-04-16T07:50:31;304.67;;;46.47;;
18188;SDS011;9219;50.396;8.546;2023-04-16T07:53:05;246.47;;;38.13;;
18188;SDS011;9219;50.396;8.546;2023-04-16T07:55:36;221.97;;;38.23;;
18188;SDS011;9219;50.396;8.546;2023-04-16T07:58:09;70.23;;;24.23;;
18188;SDS011;9219;50.396;8.546;2023-04-16T08:00:37;71.77;;;25.33;;
18188;SDS011;9219;50.396;8.546;2023-04-16T08:03:10;294.20;;;47.57;;
18188;SDS011;9219;50.396;8.546;2023-04-16T08:10:47;80.73;;;27.27;;
18188;SDS011;9219;50.396;8.546;2023-04-16T08:13:14;80.80;;;29.33;;
18188;SDS011;9219;50.396;8.546;2023-04-16T08:15:42;115.07;;;32.20;;
18188;SDS011;9219;50.396;8.546;2023-04-16T08:18:12;125.70;;;31.03;;
18188;SDS011;9219;50.396;8.546;2023-04-16T08:20:40;76.93;;;27.47;;
18188;SDS011;9219;50.396;8.546;2023-04-16T08:23:15;93.50;;;30.03;;
18188;SDS011;9219;50.396;8.546;2023-04-16T08:25:43;81.60;;;29.00;;
18188;SDS011;9219;50.396;8.546;2023-04-16T08:31:01;76.87;;;27.10;;
18188;SDS011;9219;50.396;8.546;2023-04-16T08:33:44;66.27;;;28.10;;
18188;SDS011;9219;50.396;8.546;2023-04-16T08:36:11;75.53;;;29.10;;
18188;SDS011;9219;50.396;8.546;2023-04-16T08:38:39;62.33;;;26.43;;
18188;SDS011;9219;50.396;8.546;2023-04-16T08:41:07;68.87;;;28.20;;
18188;SDS011;9219;50.396;8.546;2023-04-16T08:43:41;68.70;;;28.77;;
18188;SDS011;9219;50.396;8.546;2023-04-16T08:46:13;74.73;;;29.90;;
18188;SDS011;9219;50.396;8.546;2023-04-16T08:48:42;67.57;;;27.73;;
18188;SDS011;9219;50.396;8.546;2023-04-16T08:51:12;61.70;;;27.20;;
18188;SDS011;9219;50.396;8.546;2023-04-16T08:58:44;42.73;;;22.90;;
18188;SDS011;9219;50.396;8.546;2023-04-16T09:01:15;45.63;;;22.70;;
18188;SDS011;9219;50.396;8.546;2023-04-16T09:03:44;49.73;;;19.70;;
18188;SDS011;9219;50.396;8.546;2023-04-16T09:06:15;45.77;;;20.53;;
18188;SDS011;9219;50.396;8.546;2023-04-16T09:08:49;40.73;;;20.50;;
18188;SDS011;9219;50.396;8.546;2023-04-16T09:11:25;43.77;;;21.50;;
18188;SDS011;9219;50.396;8.546;2023-04-16T09:14:14;40.87;;;19.80;;
18188;SDS011;9219;50.396;8.546;2023-04-16T09:16:45;42.70;;;22.33;;
18188;SDS011;9219;50.396;8.546;2023-04-16T09:24:44;36.50;;;18.87;;
18188;SDS011;9219;50.396;8.546;2023-04-16T09:27:17;31.50;;;17.37;;
18188;SDS011;9219;50.396;8.546;2023-04-16T09:30:29;29.10;;;16.40;;
18188;SDS011;9219;50.396;8.546;2023-04-16T09:33:12;27.00;;;14.53;;
18188;SDS011;9219;50.396;8.546;2023-04-16T09:35:44;26.17;;;15.97;;
18188;SDS011;9219;50.396;8.546;2023-04-16T09:38:13;26.87;;;13.97;;
18188;SDS011;9219;50.396;8.546;2023-04-16T09:40:55;29.73;;;14.50;;
18188;SDS011;9219;50.396;8.546;2023-04-16T09:49:04;25.63;;;14.73;;
18188;SDS011;9219;50.396;8.546;2023-04-16T09:51:42;20.07;;;13.27;;
18188;SDS011;9219;50.396;8.546;2023-04-16T09:54:28;22.53;;;12.87;;
18188;SDS011;9219;50.396;8.546;2023-04-16T09:56:56;22.80;;;12.30;;
18188;SDS011;9219;50.396;8.546;2023-04-16T09:59:23;24.73;;;12.17;;
18188;SDS011;9219;50.396;8.546;2023-04-16T10:01:50;22.43;;;11.40;;
18188;SDS011;9219;50.396;8.546;2023-04-16T10:04:49;21.97;;;13.10;;
18188;SDS011;9219;50.396;8.546;2023-04-16T10:12:16;20.17;;;12.23;;
18188;SDS011;9219;50.396;8.546;2023-04-16T10:14:44;23.23;;;12.27;;
18188;SDS011;9219;50.396;8.546;2023-04-16T10:17:15;21.50;;;13.00;;
18188;SDS011;9219;50.396;8.546;2023-04-16T10:19:42;23.77;;;14.17;;
18188;SDS011;9219;50.396;8.546;2023-04-16T10:22:11;23.57;;;11.90;;
18188;SDS011;9219;50.396;8.546;2023-04-16T10:24:39;18.57;;;11.73;;
18188;SDS011;9219;50.396;8.546;2023-04-16T10:27:07;20.70;;;12.33;;
18188;SDS011;9219;50.396;8.546;2023-04-16T10:34:38;18.37;;;11.40;;
18188;SDS011;9219;50.396;8.546;2023-04-16T10:37:06;23.53;;;11.80;;
18188;SDS011;9219;50.396;8.546;2023-04-16T10:39:34;16.77;;;11.10;;
18188;SDS011;9219;50.396;8.546;2023-04-16T10:42:06;21.50;;;13.07;;
18188;SDS011;9219;50.396;8.546;2023-04-16T10:44:35;21.50;;;12.30;;
18188;SDS011;9219;50.396;8.546;2023-04-16T10:47:21;19.80;;;11.83;;
18188;SDS011;9219;50.396;8.546;2023-04-16T10:49:55;21.30;;;11.30;;
18188;SDS011;9219;50.396;8.546;2023-04-16T10:57:13;17.50;;;10.50;;
18188;SDS011;9219;50.396;8.546;2023-04-16T10:59:44;17.20;;;10.23;;
18188;SDS011;9219;50.396;8.546;2023-04-16T11:02:12;18.13;;;10.77;;
18188;SDS011;9219;50.396;8.546;2023-04-16T11:04:42;18.60;;;10.63;;
18188;SDS011;9219;50.396;8.546;2023-04-16T11:07:15;18.07;;;11.90;;
18188;SDS011;9219;50.396;8.546;2023-04-16T11:09:44;19.60;;;11.17;;
18188;SDS011;9219;50.396;8.546;2023-04-16T11:12:15;17.00;;;10.30;;
18188;SDS011;9219;50.396;8.546;2023-04-16T11:19:48;15.03;;;10.30;;
18188;SDS011;9219;50.396;8.546;2023-04-16T11:22:19;16.93;;;10.20;;
18188;SDS011;9219;50.396;8.546;2023-04-16T11:24:46;15.00;;;10.20;;
18188;SDS011;9219;50.396;8.546;2023-04-16T11:27:19;15.50;;;10.67;;
18188;SDS011;9219;50.396;8.546;2023-04-16T11:29:55;16.23;;;10.40;;
18188;SDS011;9219;50.396;8.546;2023-04-16T11:32:23;18.70;;;10.70;;
18188;SDS011;9219;50.396;8.546;2023-04-16T11:34:52;17.03;;;11.40;;
18188;SDS011;9219;50.396;8.546;2023-04-16T11:40:33;16.10;;;11.43;;
18188;SDS011;9219;50.396;8.546;2023-04-16T11:43:00;17.10;;;11.47;;
18188;SDS011;9219;50.396;8.546;2023-04-16T11:45:28;17.43;;;10.33;;
18188;SDS011;9219;50.396;8.546;2023-04-16T11:47:55;16.50;;;10.63;;
18188;SDS011;9219;50.396;8.546;2023-04-16T11:50:23;15.87;;;10.20;;
18188;SDS011;9219;50.396;8.546;2023-04-16T11:52:56;19.20;;;11.57;;
18188;SDS011;9219;50.396;8.546;2023-04-16T11:55:28;18.43;;;11.27;;
18188;SDS011;9219;50.396;8.546;2023-04-16T12:03:01;23.33;;;11.13;;
18188;SDS011;9219;50.396;8.546;2023-04-16T12:05:30;16.57;;;10.17;;
18188;SDS011;9219;50.396;8.546;2023-04-16T12:07:59;19.47;;;11.53;;
18188;SDS011;9219;50.396;8.546;2023-04-16T12:10:28;20.63;;;12.60;;
18188;SDS011;9219;50.396;8.546;2023-04-16T12:13:08;25.57;;;13.63;;
18188;SDS011;9219;50.396;8.546;2023-04-16T12:15:44;23.27;;;14.87;;
18188;SDS011;9219;50.396;8.546;2023-04-16T12:18:13;21.73;;;14.97;;
18188;SDS011;9219;50.396;8.546;2023-04-16T12:25:46;24.03;;;15.57;;
18188;SDS011;9219;50.396;8.546;2023-04-16T12:28:25;22.93;;;14.03;;
18188;SDS011;9219;50.396;8.546;2023-04-16T12:30:53;23.30;;;14.50;;
18188;SDS011;9219;50.396;8.546;2023-04-16T12:33:21;18.57;;;12.30;;
18188;SDS011;9219;50.396;8.546;2023-04-16T12:35:48;19.23;;;12.40;;
18188;SDS011;9219;50.396;8.546;2023-04-16T12:38:16;21.83;;;14.93;;
18188;SDS011;9219;50.396;8.546;2023-04-16T12:40:50;21.83;;;12.60;;
18188;SDS011;9219;50.396;8.546;2023-04-16T12:43:20;19.50;;;12.63;;
18188;SDS011;9219;50.396;8.546;2023-04-16T12:46:13;20.60;;;13.07;;
18188;SDS011;9219;50.396;8.546;2023-04-16T12:48:41;17.17;;;12.27;;
18188;SDS011;9219;50.396;8.546;2023-04-16T12:51:08;20.30;;;13.27;;
18188;SDS011;9219;50.396;8.546;2023-04-16T12:53:36;20.60;;;11.50;;
18188;SDS011;9219;50.396;8.546;2023-04-16T12:56:03;18.83;;;11.97;;
18188;SDS011;9219;50.396;8.546;2023-04-16T12:58:31;19.30;;;12.23;;
18188;SDS011;9219;50.396;8.546;2023-04-16T13:00:59;18.23;;;11.53;;
18188;SDS011;9219;50.396;8.546;2023-04-16T13:08:31;16.23;;;10.07;;
18188;SDS011;9219;50.396;8.546;2023-04-16T13:10:59;15.53;;;10.73;;
18188;SDS011;9219;50.396;8.546;2023-04-16T13:13:26;14.23;;;9.77;;
18188;SDS011;9219;50.396;8.546;2023-04-16T13:15:54;15.93;;;10.43;;
18188;SDS011;9219;50.396;8.546;2023-04-16T13:18:21;15.73;;;10.07;;
18188;SDS011;9219;50.396;8.546;2023-04-16T13:20:50;14.67;;;9.87;;
18188;SDS011;9219;50.396;8.546;2023-04-16T13:23:17;12.57;;;9.53;;
18188;SDS011;9219;50.396;8.546;2023-04-16T13:30:55;13.17;;;8.27;;
18188;SDS011;9219;50.396;8.546;2023-04-16T13:33:24;11.90;;;7.90;;
18188;SDS011;9219;50.396;8.546;2023-04-16T13:35:52;13.53;;;8.50;;
18188;SDS011;9219;50.396;8.546;2023-04-16T13:38:20;14.30;;;7.53;;
18188;SDS011;9219;50.396;8.546;2023-04-16T13:40:47;13.60;;;8.33;;
18188;SDS011;9219;50.396;8.546;2023-04-16T13:43:15;11.27;;;8.20;;
18188;SDS011;9219;50.396;8.546;2023-04-16T13:45:43;14.47;;;9.73;;
18188;SDS011;9219;50.396;8.546;2023-04-16T13:53:21;12.03;;;7.23;;
18188;SDS011;9219;50.396;8.546;2023-04-16T13:55:49;11.83;;;8.07;;
18188;SDS011;9219;50.396;8.546;2023-04-16T13:58:16;10.40;;;7.47;;
18188;SDS011;9219;50.396;8.546;2023-04-16T14:00:43;13.10;;;7.33;;
18188;SDS011;9219;50.396;8.546;2023-04-16T14:03:11;12.03;;;7.53;;
18188;SDS011;9219;50.396;8.546;2023-04-16T14:05:39;10.43;;;7.30;;
18188;SDS011;9219;50.396;8.546;2023-04-16T14:08:07;11.47;;;7.40;;
18188;SDS011;9219;50.396;8.546;2023-04-16T14:16:25;10.27;;;5.97;;
18188;SDS011;9219;50.396;8.546;2023-04-16T14:18:53;9.97;;;6.90;;
18188;SDS011;9219;50.396;8.546;2023-04-16T14:21:21;9.90;;;6.40;;
18188;SDS011;9219;50.396;8.546;2023-04-16T14:23:49;12.23;;;7.27;;
18188;SDS011;9219;50.396;8.546;2023-04-16T14:26:16;10.27;;;6.90;;
18188;SDS011;9219;50.396;8.546;2023-04-16T14:28:43;10.23;;;7.30;;
18188;SDS011;9219;50.396;8.546;2023-04-16T14:31:11;10.57;;;7.20;;
18188;SDS011;9219;50.396;8.546;2023-04-16T14:36:36;9.40;;;7.33;;
18188;SDS011;9219;50.396;8.546;2023-04-16T14:39:03;11.93;;;7.90;;
18188;SDS011;9219;50.396;8.546;2023-04-16T14:41:31;12.17;;;6.27;;
18188;SDS011;9219;50.396;8.546;2023-04-16T14:43:58;13.17;;;8.07;;
18188;SDS011;9219;50.396;8.546;2023-04-16T14:46:25;13.37;;;7.20;;
18188;SDS011;9219;50.396;8.546;2023-04-16T14:48:53;8.67;;;7.00;;
18188;SDS011;9219;50.396;8.546;2023-04-16T14:51:21;11.73;;;8.00;;
18188;SDS011;9219;50.396;8.546;2023-04-16T14:58:53;11.77;;;7.17;;
18188;SDS011;9219;50.396;8.546;2023-04-16T15:01:20;11.30;;;7.30;;
18188;SDS011;9219;50.396;8.546;2023-04-16T15:03:48;12.00;;;6.57;;
18188;SDS011;9219;50.396;8.546;2023-04-16T15:06:15;9.77;;;6.80;;
18188;SDS011;9219;50.396;8.546;2023-04-16T15:08:46;12.60;;;7.50;;
18188;SDS011;9219;50.396;8.546;2023-04-16T15:11:13;11.90;;;6.83;;
18188;SDS011;9219;50.396;8.546;2023-04-16T15:13:40;13.77;;;6.70;;
18188;SDS011;9219;50.396;8.546;2023-04-16T15:21:15;11.57;;;7.23;;
18188;SDS011;9219;50.396;8.546;2023-04-16T15:23:42;7.57;;;5.50;;
18188;SDS011;9219;50.396;8.546;2023-04-16T15:26:09;10.67;;;7.03;;
18188;SDS011;9219;50.396;8.546;2023-04-16T15:28:37;11.27;;;7.37;;
18188;SDS011;9219;50.396;8.546;2023-04-16T15:31:04;13.43;;;7.80;;
18188;SDS011;9219;50.396;8.546;2023-04-16T15:33:32;11.70;;;7.97;;
18188;SDS011;9219;50.396;8.546;2023-04-16T15:35:59;13.10;;;7.77;;
18188;SDS011;9219;50.396;8.546;2023-04-16T15:43:31;15.03;;;10.17;;
18188;SDS011;9219;50.396;8.546;2023-04-16T15:45:59;17.27;;;8.90;;
18188;SDS011;9219;50.396;8.546;2023-04-16T15:48:26;14.43;;;9.93;;
18188;SDS011;9219;50.396;8.546;2023-04-16T15:50:54;15.90;;;9.83;;
18188;SDS011;9219;50.396;8.546;2023-04-16T15:53:22;16.63;;;10.27;;
18188;SDS011;9219;50.396;8.546;2023-04-16T15:55:49;20.60;;;8.83;;
18188;SDS011;9219;50.396;8.546;2023-04-16T15:58:18;15.67;;;9.77;;
18188;SDS011;9219;50.396;8.546;2023-04-16T16:05:50;13.83;;;9.00;;
18188;SDS011;9219;50.396;8.546;2023-04-16T16:08:17;16.67;;;9.90;;
18188;SDS011;9219;50.396;8.546;2023-04-16T16:10:44;16.97;;;9.67;;
18188;SDS011;9219;50.396;8.546;2023-04-16T16:13:11;17.13;;;9.30;;
18188;SDS011;9219;50.396;8.546;2023-04-16T16:15:43;20.77;;;9.67;;
18188;SDS011;9219;50.396;8.546;2023-04-16T16:18:11;15.77;;;10.17;;
18188;SDS011;9219;50.396;8.546;2023-04-16T16:20:38;14.37;;;9.20;;
18188;SDS011;9219;50.396;8.546;2023-04-16T16:28:12;15.57;;;9.73;;
18188;SDS011;9219;50.396;8.546;2023-04-16T16:30:40;12.17;;;8.67;;
18188;SDS011;9219;50.396;8.546;2023-04-16T16:33:12;16.33;;;9.53;;
18188;SDS011;9219;50.396;8.546;2023-04-16T16:35:39;17.10;;;9.70;;
18188;SDS011;9219;50.396;8.546;2023-04-16T16:38:07;14.43;;;9.53;;
18188;SDS011;9219;50.396;8.546;2023-04-16T16:40:34;14.67;;;9.80;;
18188;SDS011;9219;50.396;8.546;2023-04-16T16:43:02;16.63;;;10.77;;
18188;SDS011;9219;50.396;8.546;2023-04-16T16:51:21;18.13;;;11.53;;
18188;SDS011;9219;50.396;8.546;2023-04-16T16:53:50;16.70;;;11.40;;
18188;SDS011;9219;50.396;8.546;2023-04-16T16:56:18;17.37;;;11.50;;
18188;SDS011;9219;50.396;8.546;2023-04-16T16:58:45;19.53;;;11.73;;
18188;SDS011;9219;50.396;8.546;2023-04-16T17:01:13;29.37;;;12.30;;
18188;SDS011;9219;50.396;8.546;2023-04-16T17:03:42;18.77;;;12.17;;
18188;SDS011;9219;50.396;8.546;2023-04-16T17:06:09;28.83;;;11.87;;
18188;SDS011;9219;50.396;8.546;2023-04-16T17:08:38;17.77;;;10.93;;
18188;SDS011;9219;50.396;8.546;2023-04-16T17:16:17;21.40;;;12.03;;
18188;SDS011;9219;50.396;8.546;2023-04-16T17:18:45;18.73;;;11.10;;
18188;SDS011;9219;50.396;8.546;2023-04-16T17:21:13;20.97;;;11.83;;
18188;SDS011;9219;50.396;8.546;2023-04-16T17:23:42;20.03;;;11.80;;
18188;SDS011;9219;50.396;8.546;2023-04-16T17:26:12;23.63;;;11.77;;
18188;SDS011;9219;50.396;8.546;2023-04-16T17:28:40;21.37;;;12.37;;
18188;SDS011;9219;50.396;8.546;2023-04-16T17:31:08;16.47;;;11.40;;
18188;SDS011;9219;50.396;8.546;2023-04-16T17:40:47;19.97;;;11.40;;
18188;SDS011;9219;50.396;8.546;2023-04-16T17:43:14;19.20;;;11.50;;
18188;SDS011;9219;50.396;8.546;2023-04-16T17:45:41;13.87;;;9.40;;
18188;SDS011;9219;50.396;8.546;2023-04-16T17:48:09;19.80;;;11.17;;
18188;SDS011;9219;50.396;8.546;2023-04-16T17:50:39;21.27;;;12.00;;
18188;SDS011;9219;50.396;8.546;2023-04-16T17:53:07;24.20;;;11.83;;
18188;SDS011;9219;50.396;8.546;2023-04-16T17:55:36;19.83;;;12.30;;
18188;SDS011;9219;50.396;8.546;2023-04-16T18:03:10;21.03;;;13.33;;
18188;SDS011;9219;50.396;8.546;2023-04-16T18:05:39;24.80;;;13.90;;
18188;SDS011;9219;50.396;8.546;2023-04-16T18:08:14;16.37;;;11.03;;
18188;SDS011;9219;50.396;8.546;2023-04-16T18:10:42;19.43;;;12.20;;
18188;SDS011;9219;50.396;8.546;2023-04-16T18:13:09;19.17;;;12.23;;
18188;SDS011;9219;50.396;8.546;2023-04-16T18:15:36;27.10;;;14.87;;
18188;SDS011;9219;50.396;8.546;2023-04-16T18:18:05;23.07;;;14.10;;
18188;SDS011;9219;50.396;8.546;2023-04-16T18:25:37;17.97;;;12.60;;
18188;SDS011;9219;50.396;8.546;2023-04-16T18:28:05;20.23;;;12.37;;
18188;SDS011;9219;50.396;8.546;2023-04-16T18:30:33;21.63;;;12.77;;